»·PEaware :: N123KT KSAN-KBUR

N123KT :: KSAN-KBUR

FLIGHT INFORMATION

Flight Status: Arrived
Operator: Privately registered:
United States
More flights under this callsign
Pilot: Anonymous 475 (475)
Aircraft: BEECH AIRCRAFT BONANZA
(BE35)
More flights by this aircraft type
Origin: KSAN San Diego Intl-Lindbergh
United States
Destination: KBUR Bob Hope-Burbank
United States
More flights between these airports :: More routes between these airports
Route: OCN V23 POPPR SMO125R SMO SMO311R SILEX
File this flight plan on PilotEdge
Remarks: TEC route SANP13
Altitude:
(Current/Filed)
6,000ft
Speed:
(Current/Filed)
160kts
Departed: 28-Sep-18 01:42 PM
Arrived: 28-Sep-18 02:29 PM
Distance/Time
Traveled:
106nm/0:47
Distance/Time
To Go:
Arrived

Flight Plot

Page will automatically refresh every two minutes.


Map Options




Map Legend


Flown Route
Filed Route
Departure Airport
Arrival Airport
Navaid (VOR, NDB)
Fix

Horizontal Profiles

Position Reports

Time Latitude Longitude Heading Altitude Ground
Speed
28-Sep-18 13:27 32.737318 -117.186997 233 18ft 0kts
28-Sep-18 13:28 32.737317 -117.186998 233 18ft 0kts
28-Sep-18 13:29 32.737316 -117.187000 233 18ft 0kts
28-Sep-18 13:30 32.737316 -117.187001 233 18ft 0kts
28-Sep-18 13:31 32.737315 -117.187002 233 18ft 0kts
28-Sep-18 13:32 32.737314 -117.187004 233 18ft 0kts
28-Sep-18 13:33 32.736655 -117.185817 144 18ft 8kts
28-Sep-18 13:34 32.734568 -117.184044 144 18ft 9kts
28-Sep-18 13:35 32.734152 -117.183912 186 18ft 0kts
28-Sep-18 13:36 32.733264 -117.183737 117 18ft 7kts
28-Sep-18 13:37 32.732428 -117.180149 103 18ft 13kts
28-Sep-18 13:38 32.731300 -117.175819 136 18ft 10kts
28-Sep-18 13:39 32.730968 -117.175529 145 18ft 0kts
28-Sep-18 13:40 32.730964 -117.175526 145 18ft 0kts
28-Sep-18 13:41 32.730960 -117.175522 145 18ft 0kts
28-Sep-18 13:42 32.730956 -117.175519 145 18ft 0kts
28-Sep-18 13:43 32.730719 -117.175329 153 18ft 9kts
28-Sep-18 13:44 32.733461 -117.189230 284 202ft 97kts
28-Sep-18 13:45 32.754226 -117.216917 319 1209ft 133kts
28-Sep-18 13:46 32.784987 -117.240046 339 2425ft 122kts
28-Sep-18 13:47 32.817210 -117.252250 340 3567ft 124kts
28-Sep-18 13:48 32.850725 -117.265262 339 4663ft 129kts
28-Sep-18 13:49 32.885346 -117.278741 339 5687ft 133kts
28-Sep-18 13:50 32.924876 -117.294141 340 5705ft 172kts
28-Sep-18 13:51 32.969693 -117.311581 340 5920ft 159kts
28-Sep-18 13:52 33.012888 -117.328441 340 5970ft 167kts
28-Sep-18 13:53 33.057986 -117.346091 340 5974ft 173kts
28-Sep-18 13:54 33.104135 -117.364168 340 5972ft 176kts
28-Sep-18 13:55 33.150813 -117.382461 340 5966ft 174kts
28-Sep-18 13:56 33.196854 -117.400518 340 5974ft 174kts
28-Sep-18 13:57 33.242945 -117.420436 321 5970ft 177kts
28-Sep-18 13:58 33.278139 -117.461347 312 6005ft 175kts
28-Sep-18 13:59 33.312609 -117.501492 313 6009ft 172kts
28-Sep-18 14:00 33.346805 -117.541413 313 6019ft 172kts
28-Sep-18 14:01 33.381200 -117.581595 313 6021ft 173kts
28-Sep-18 14:02 33.415759 -117.622003 313 6017ft 173kts
28-Sep-18 14:03 33.450233 -117.662363 313 6010ft 173kts
28-Sep-18 14:04 33.484765 -117.702825 313 6000ft 174kts
28-Sep-18 14:05 33.519387 -117.743511 313 5991ft 174kts
28-Sep-18 14:06 33.553854 -117.783998 313 5997ft 173kts
28-Sep-18 14:07 33.588339 -117.824574 313 6004ft 173kts
28-Sep-18 14:08 33.622817 -117.865163 313 5997ft 173kts
28-Sep-18 14:09 33.657295 -117.905797 313 6003ft 173kts
28-Sep-18 14:10 33.689248 -117.948812 297 5991ft 172kts
28-Sep-18 14:11 33.712293 -118.001780 295 5984ft 180kts
28-Sep-18 14:12 33.736504 -118.055310 295 5980ft 181kts
28-Sep-18 14:13 33.760889 -118.108886 296 5981ft 181kts
28-Sep-18 14:14 33.784616 -118.160867 295 6008ft 175kts
28-Sep-18 14:15 33.808749 -118.213827 296 6007ft 181kts
28-Sep-18 14:16 33.832597 -118.266218 295 6002ft 176kts
28-Sep-18 14:17 33.865775 -118.311328 318 5996ft 184kts
28-Sep-18 14:18 33.904467 -118.350316 318 6002ft 179kts
28-Sep-18 14:19 33.943661 -118.389697 318 5997ft 184kts
28-Sep-18 14:20 33.982571 -118.428861 318 5344ft 181kts
28-Sep-18 14:21 34.020971 -118.465437 326 4231ft 171kts
28-Sep-18 14:22 34.058097 -118.495507 325 4178ft 162kts
28-Sep-18 14:23 34.097622 -118.527550 326 3952ft 173kts
28-Sep-18 14:24 34.136029 -118.558744 326 3317ft 161kts
28-Sep-18 14:25 34.172159 -118.585272 2 3102ft 140kts
28-Sep-18 14:26 34.189322 -118.543587 72 3081ft 150kts
28-Sep-18 14:27 34.199492 -118.496451 89 3077ft 141kts
28-Sep-18 14:28 34.198442 -118.449206 90 2352ft 131kts
28-Sep-18 14:29 34.198573 -118.409286 92 1523ft 110kts
28-Sep-18 14:30 34.198016 -118.377328 94 877ft 82kts
28-Sep-18 14:31 34.198215 -118.360299 1 724ft 8kts
28-Sep-18 14:32 34.199836 -118.359912 342 724ft 5kts
28-Sep-18 14:33 34.200116 -118.360017 342 724ft 0kts
28-Sep-18 14:34 34.200116 -118.360017 342 724ft 0kts
28-Sep-18 14:35 34.200116 -118.360017 342 724ft 0kts

Navigation Log

Ident Type
Flight plan parsing failed, navigation log unavailable